Quick Links (Output Below):   Max & Min Temps   /   Climate Reports   /   Zone Forecasts
River Forecasts   /   Forestry Forecasts   /   Aviation Forecasts   /   Radars   /   Features

Terminal Aerodrome Forecast (Fayetteville)

Pick a Site:
Arkadelphia | El Dorado | Fayetteville | Fort Smith | Harrison | Highfill | Hot Springs | Jonesboro
Little Rock | Monticello | Mountain Home | Pine Bluff | Texarkana
 Forecast 

KFYV 060520Z 0606/0706 17003KT P6SM SKC
     FM061600 22005KT P6SM SKC
     FM070100 18002KT P6SM SKC=


 Latest METARs (Observations) 
How to Decode METARs
05Z KFYV 060453Z AUTO 00000KT 10SM CLR 09/08 A3008 RMK AO2 SLP181
         T00890078
         
04Z KFYV 060353Z AUTO 17003KT 10SM CLR 09/08 A3007 RMK AO2 SLP177
         T00940078
         
03Z KFYV 060253Z AUTO 17003KT 10SM CLR 11/08 A3005 RMK AO2 SLP171
         T01060083 53014
         
02Z KFYV 060153Z 00000KT 10SM CLR 13/08 A3003 RMK AO2 SLP164
         T01280083
         
01Z KFYV 060053Z 02003KT 10SM CLR 19/06 A3001 RMK AO2 SLP157
         T01890061
         
00Z KFYV 052353Z 36004KT 10SM CLR 21/06 A3001 RMK AO2 SLP157 T02110061
         10228 20206 56008
         
***** Today's Observations (Above) *****


23Z KFYV 052253Z 01007KT 330V040 10SM CLR 22/06 A3001 RMK AO2 SLP160
         T02170061
         
22Z KFYV 052153Z 32013G20KT 10SM CLR 22/08 A3002 RMK AO2 SLP160
         T02220078
         
21Z KFYV 052053Z 34009KT 10SM CLR 22/07 A3003 RMK AO2 SLP164 T02220072
         58016
         
20Z KFYV 051953Z VRB06G16KT 10SM CLR 22/07 A3005 RMK AO2 SLP172
         T02170067
         
***** Yesterday's Observations (Above) *****


Back to Main Page
http://www.srh.noaa.gov/lzk/qfcst.php

USA.gov is the U.S. government's official web portal to all federal, state and local government web resources and services.